DNAK

Akure Airport

Airport
ICAO code
DNAK
IATA Code
AKR
Summary
ICAO Region
AFI
ICAO Territory
Location

Saribi, Ondo State

Serving
Akure
Elevation
1108 ft
Coordinates
7° 14' 55" N , 5° 18' 5" E
KCC
Metar
Observation
DNAK 241500Z 22004KT 9999 TS BKN013 FEW020CB 31/23 Q1011
Station
Akure Airport
Date/Time
2022-09-24 15:00:00
Wind direction
220°
Wind speed
04 kts
Lowest cloud amount
broken clouds
Temperature
31°C
Dew point
23°C
Humidity
62%
QNH
1011 hPa
Weather condition
thunderstorm

Akure Airport is an airport serving Akure, the capital of Ondo State, Nigeria.

Climatology

Tropical savanna climate (Köppen climate classification Aw)

Runways

Designator Length Width Surface Rops
3/21 2803 45 ASP No/No

Airport map

Aerial View

SKYbrary Partners:

Safety knowledge contributed by: